الصفحة الرئيسية
METAR-TAF:

METAR-TAF

مطار :

سانت فرنسيس, كانساس, الولايات المتحدة

دائرة عرض: 39-45-40N, خط طول: 101-47-45W, ارتفاع: 1040 متر

مراقبة الطقس الحالي

تاريخ ووقت الإصدار 19 دقيقة قبل الساعة 02:15UTC
ريح 6 عقدة من الجنوب/الجنوب الشرقي
درجة الحرارة 25°درجة مئوية
الرطوبة 34%
ضغط 1013 hPa
الرؤية: 16.1 كم
سماء صافية

METAR: KSYF 260215Z AUTO 15006KT 10SM CLR 25/08 A2990 RMK AO2 T02460080

زمن: 21:34 (02:34 UTC)


TAF: مفقودة

أرصاد الطقس والتوقعات من أكثر من 4000 مطار (تقارير الطقس للمطار METAR والتنبؤ بالطقس بالمطارTAF).

المحطات المتاحة هي النقط الصفراء والحمراء على الخريطة.

حرك المؤشر فوق النقطة لمعرفة اسم المحطة.

ثم انقر لمعرفة أرصاد وتوقعات الطقس.

لتغيير الخارطة: اضغط على الأزرار الخضراء مع رمز الصليب الأسود للتكبير. على الزر الأخضر مع شرطة للتصغير، أو على الأسهم الخضراء للخرائط المجاورة.


METAR-TAF: